createdAt,value
2019-05-23T00:00:03.243Z,0.00
2019-05-23T00:01:03.288Z,0.00
2019-05-23T00:02:03.328Z,0.00
2019-05-23T00:03:03.366Z,0.00
2019-05-23T00:04:03.405Z,0.00
2019-05-23T00:05:03.447Z,0.00
2019-05-23T00:06:03.477Z,0.00
2019-05-23T00:07:03.524Z,0.00
2019-05-23T00:08:03.562Z,0.00
2019-05-23T00:09:03.618Z,0.00
2019-05-23T00:10:03.637Z,0.00
2019-05-23T00:11:03.673Z,0.00
2019-05-23T00:12:03.708Z,0.00
2019-05-23T00:13:03.756Z,0.00
2019-05-23T00:14:03.787Z,0.00
2019-05-23T00:15:03.837Z,0.00
2019-05-23T00:16:03.862Z,0.00
2019-05-23T00:17:03.918Z,0.00
2019-05-23T00:18:03.942Z,0.00
2019-05-23T00:19:03.980Z,0.00
2019-05-23T00:20:04.020Z,0.00
2019-05-23T00:21:04.056Z,0.00
2019-05-23T00:22:04.094Z,0.00
2019-05-23T00:23:04.132Z,0.00
2019-05-23T00:24:04.202Z,0.00
2019-05-23T00:25:04.218Z,0.00
2019-05-23T00:26:04.248Z,0.00
2019-05-23T00:27:04.286Z,0.00
2019-05-23T00:28:04.325Z,0.00
2019-05-23T00:29:09.953Z,0.00
2019-05-23T00:30:04.405Z,0.00
2019-05-23T00:31:04.440Z,0.00
2019-05-23T00:32:04.482Z,0.00
2019-05-23T00:33:04.517Z,0.00
2019-05-23T00:34:04.555Z,0.00
2019-05-23T00:35:04.593Z,0.00
2019-05-23T00:36:04.632Z,0.00
2019-05-23T00:37:04.674Z,0.00
2019-05-23T00:38:04.711Z,0.00
2019-05-23T00:39:04.752Z,0.00
2019-05-23T00:40:04.786Z,0.00
2019-05-23T00:41:04.829Z,0.00
2019-05-23T00:42:04.875Z,0.00
2019-05-23T00:43:04.908Z,0.00
2019-05-23T00:44:04.944Z,0.00
2019-05-23T00:45:04.979Z,0.00
2019-05-23T00:46:05.026Z,0.00
2019-05-23T00:47:05.057Z,0.00
2019-05-23T00:48:05.095Z,0.00
2019-05-23T00:49:05.133Z,0.00
2019-05-23T00:50:05.171Z,0.00
2019-05-23T00:51:05.614Z,0.00
2019-05-23T00:52:05.247Z,0.00
2019-05-23T00:53:05.287Z,0.00
2019-05-23T00:54:05.325Z,0.00
2019-05-23T00:55:05.360Z,0.00
2019-05-23T00:56:05.409Z,0.00
2019-05-23T00:57:05.447Z,0.00
2019-05-23T00:58:05.475Z,0.00
2019-05-23T00:59:05.517Z,0.00
2019-05-23T01:00:05.555Z,0.00
2019-05-23T01:01:05.591Z,0.00
2019-05-23T01:02:05.629Z,0.00
2019-05-23T01:03:05.675Z,0.00
2019-05-23T01:04:05.707Z,0.00
2019-05-23T01:05:05.745Z,0.00
2019-05-23T01:06:05.801Z,0.00
2019-05-23T01:07:05.823Z,0.00
2019-05-23T01:08:05.861Z,0.00
2019-05-23T01:09:05.902Z,0.00
2019-05-23T01:10:05.941Z,0.00
2019-05-23T01:11:05.977Z,0.00
2019-05-23T01:12:06.014Z,0.00
2019-05-23T01:13:06.065Z,0.00
2019-05-23T01:14:06.096Z,0.00
2019-05-23T01:15:06.130Z,0.00
2019-05-23T01:16:06.169Z,0.00
2019-05-23T01:17:06.207Z,0.00
2019-05-23T01:18:06.246Z,0.00
2019-05-23T01:19:06.285Z,0.00
2019-05-23T01:20:06.321Z,0.00
2019-05-23T01:21:06.359Z,0.00
2019-05-23T01:22:06.429Z,0.00
2019-05-23T01:23:06.438Z,0.00
2019-05-23T01:24:06.474Z,0.00
2019-05-23T01:25:06.520Z,0.00
2019-05-23T01:26:06.557Z,0.00
2019-05-23T01:27:06.592Z,0.00
2019-05-23T01:28:06.806Z,0.00
2019-05-23T01:29:06.670Z,0.00
2019-05-23T01:30:06.705Z,0.00
2019-05-23T01:31:06.748Z,0.00
2019-05-23T01:32:06.809Z,0.00
2019-05-23T01:33:06.822Z,0.00
2019-05-23T01:34:06.867Z,0.00
2019-05-23T01:35:06.906Z,0.00
2019-05-23T01:36:06.962Z,0.00
2019-05-23T01:37:06.974Z,0.00
2019-05-23T01:38:07.064Z,0.00
2019-05-23T01:39:07.051Z,0.00
2019-05-23T01:40:07.093Z,0.00
2019-05-23T01:41:07.129Z,0.00
2019-05-23T01:42:07.180Z,0.00
2019-05-23T01:43:07.207Z,0.00
2019-05-23T01:44:07.244Z,0.00
2019-05-23T01:45:07.285Z,0.00
2019-05-23T01:46:07.325Z,0.00
2019-05-23T01:47:07.363Z,0.00
2019-05-23T01:48:07.406Z,0.00
2019-05-23T01:49:07.435Z,0.00
2019-05-23T01:50:07.480Z,0.00
2019-05-23T01:51:07.519Z,0.00
2019-05-23T01:52:07.550Z,0.00
2019-05-23T01:53:07.590Z,0.00
2019-05-23T01:54:07.631Z,0.00
2019-05-23T01:55:07.698Z,0.00
2019-05-23T01:56:07.711Z,0.00
2019-05-23T01:57:07.744Z,0.00
2019-05-23T01:58:07.793Z,0.00
2019-05-23T01:59:07.820Z,0.00
2019-05-23T02:00:10.738Z,0.00
2019-05-23T02:01:07.896Z,0.00
2019-05-23T02:02:07.936Z,0.00
2019-05-23T02:03:07.975Z,0.00
2019-05-23T02:04:08.013Z,0.00
2019-05-23T02:05:08.053Z,0.00
2019-05-23T02:06:08.095Z,0.00
2019-05-23T02:07:08.129Z,0.00
2019-05-23T02:08:08.183Z,0.00
2019-05-23T02:09:08.209Z,0.00
2019-05-23T02:10:08.255Z,0.00
2019-05-23T02:11:08.287Z,0.00
2019-05-23T02:12:08.321Z,0.00
2019-05-23T02:13:08.361Z,0.00
2019-05-23T02:14:08.401Z,0.00
2019-05-23T02:15:08.442Z,0.00
2019-05-23T02:16:08.480Z,0.00
2019-05-23T02:17:08.517Z,0.00
2019-05-23T02:18:08.555Z,0.00
2019-05-23T02:19:08.593Z,0.00
2019-05-23T02:20:08.632Z,0.00
2019-05-23T02:21:08.670Z,0.00
2019-05-23T02:22:08.708Z,0.00
2019-05-23T02:23:08.748Z,0.00
2019-05-23T02:24:08.786Z,0.00
2019-05-23T02:25:08.824Z,0.00
2019-05-23T02:26:08.863Z,0.00
2019-05-23T02:27:08.903Z,0.00
2019-05-23T02:28:08.940Z,0.00
2019-05-23T02:29:08.984Z,0.00
2019-05-23T02:30:30.178Z,0.00
2019-05-23T02:31:09.064Z,0.00
2019-05-23T02:32:09.135Z,0.00
2019-05-23T02:33:09.144Z,0.00
2019-05-23T02:34:09.174Z,0.00
2019-05-23T02:35:09.213Z,0.00
2019-05-23T02:36:09.252Z,0.00
2019-05-23T02:37:09.290Z,0.00
2019-05-23T02:38:09.330Z,0.00
2019-05-23T02:39:09.369Z,0.00
2019-05-23T02:40:09.413Z,0.00
2019-05-23T02:41:09.447Z,0.00
2019-05-23T02:42:09.486Z,0.00
2019-05-23T02:43:09.526Z,0.00
2019-05-23T02:44:09.566Z,0.00
2019-05-23T02:45:09.607Z,4.00
2019-05-23T02:46:09.646Z,4.00
2019-05-23T02:47:09.680Z,4.00
2019-05-23T02:48:09.718Z,0.00
2019-05-23T02:49:09.760Z,4.00
2019-05-23T02:50:09.799Z,4.00
2019-05-23T02:51:09.840Z,4.00
2019-05-23T02:52:09.881Z,4.00
2019-05-23T02:53:09.917Z,8.00
2019-05-23T02:54:09.953Z,4.00
2019-05-23T02:55:09.993Z,8.00
2019-05-23T02:56:10.038Z,8.00
2019-05-23T02:57:10.070Z,12.00
2019-05-23T02:58:10.109Z,12.00
2019-05-23T02:59:10.152Z,12.00
2019-05-23T03:00:10.197Z,16.00
2019-05-23T03:01:10.237Z,16.00
2019-05-23T03:02:10.264Z,16.00
2019-05-23T03:03:10.305Z,20.00
2019-05-23T03:04:10.344Z,24.00
2019-05-23T03:05:10.383Z,28.00
2019-05-23T03:06:10.424Z,28.00
2019-05-23T03:07:10.463Z,36.00
2019-05-23T03:08:10.509Z,36.00
2019-05-23T03:09:10.541Z,44.00
2019-05-23T03:10:10.579Z,48.00
2019-05-23T03:11:10.618Z,56.00
2019-05-23T03:12:10.664Z,60.00
2019-05-23T03:13:10.696Z,68.00
2019-05-23T03:14:10.746Z,72.00
2019-05-23T03:15:10.774Z,80.00
2019-05-23T03:16:10.815Z,88.00
2019-05-23T03:17:10.854Z,96.00
2019-05-23T03:18:10.894Z,108.00
2019-05-23T03:19:10.931Z,112.00
2019-05-23T03:20:10.970Z,120.00
2019-05-23T03:21:11.012Z,124.00
2019-05-23T03:22:11.053Z,132.00
2019-05-23T03:23:11.088Z,140.00
2019-05-23T03:24:11.126Z,152.00
2019-05-23T03:25:11.173Z,172.00
2019-05-23T03:26:11.204Z,188.00
2019-05-23T03:27:11.244Z,204.00
2019-05-23T03:28:11.283Z,220.00
2019-05-23T03:29:11.358Z,240.00
2019-05-23T03:30:11.363Z,256.00
2019-05-23T03:31:28.455Z,276.00
2019-05-23T03:32:11.455Z,296.00
2019-05-23T03:33:11.481Z,316.00
2019-05-23T03:34:11.542Z,340.00
2019-05-23T03:35:11.561Z,368.00
2019-05-23T03:36:11.596Z,392.00
2019-05-23T03:37:11.637Z,396.00
2019-05-23T03:38:11.676Z,408.00
2019-05-23T03:39:11.721Z,428.00
2019-05-23T03:40:11.755Z,452.00
2019-05-23T03:41:11.993Z,452.00
2019-05-23T03:42:11.832Z,472.00
2019-05-23T03:43:11.880Z,492.00
2019-05-23T03:44:11.909Z,516.00
2019-05-23T03:45:11.951Z,556.00
2019-05-23T03:46:11.991Z,588.00
2019-05-23T03:47:12.035Z,624.00
2019-05-23T03:48:12.077Z,636.00
2019-05-23T03:49:12.114Z,636.00
2019-05-23T03:50:12.146Z,676.00
2019-05-23T03:51:12.196Z,732.00
2019-05-23T03:52:12.231Z,776.00
2019-05-23T03:53:12.265Z,816.00
2019-05-23T03:54:12.305Z,856.00
2019-05-23T03:55:12.348Z,888.00
2019-05-23T03:56:12.377Z,912.00
2019-05-23T03:57:12.421Z,952.00
2019-05-23T03:58:12.463Z,1000.00
2019-05-23T03:59:12.500Z,1048.00
2019-05-23T04:00:12.536Z,1104.00
2019-05-23T04:01:12.590Z,1140.00
2019-05-23T04:02:12.616Z,1188.00
2019-05-23T04:03:12.661Z,1236.00
2019-05-23T04:04:12.691Z,1272.00
2019-05-23T04:05:12.736Z,1320.00
2019-05-23T04:06:12.776Z,1364.00
2019-05-23T04:07:12.811Z,1440.00
2019-05-23T04:08:12.850Z,1516.00
2019-05-23T04:09:12.887Z,1520.00
2019-05-23T04:10:12.933Z,1540.00
2019-05-23T04:11:12.971Z,1604.00
2019-05-23T04:12:13.010Z,1684.00
2019-05-23T04:13:13.068Z,1744.00
2019-05-23T04:14:13.200Z,1776.00
2019-05-23T04:15:13.124Z,1812.00
2019-05-23T04:16:13.167Z,1896.00
2019-05-23T04:17:13.204Z,1960.00
2019-05-23T04:18:13.251Z,2016.00
2019-05-23T04:19:13.281Z,1940.00
2019-05-23T04:20:13.322Z,1908.00
2019-05-23T04:21:13.413Z,1940.00
2019-05-23T04:22:13.411Z,1964.00
2019-05-23T04:23:13.442Z,1976.00
2019-05-23T04:24:13.483Z,2024.00
2019-05-23T04:25:13.522Z,2116.00
2019-05-23T04:26:13.565Z,2160.00
2019-05-23T04:27:13.597Z,2220.00
2019-05-23T04:28:13.637Z,2320.00
2019-05-23T04:29:13.674Z,2356.00
2019-05-23T04:30:13.715Z,2416.00
2019-05-23T04:31:13.869Z,2544.00
2019-05-23T04:32:13.806Z,2580.00
2019-05-23T04:33:13.833Z,2672.00
2019-05-23T04:34:13.873Z,2632.00
2019-05-23T04:35:13.912Z,2648.00
2019-05-23T04:36:13.952Z,2692.00
2019-05-23T04:37:13.990Z,2748.00
2019-05-23T04:38:14.030Z,2728.00
2019-05-23T04:39:14.072Z,2788.00
2019-05-23T04:40:14.110Z,2704.00
2019-05-23T04:41:14.149Z,2624.00
2019-05-23T04:42:14.192Z,2600.00
2019-05-23T04:43:14.236Z,2608.00
2019-05-23T04:44:14.269Z,2680.00
2019-05-23T04:45:14.307Z,2876.00
2019-05-23T04:46:14.353Z,3008.00
2019-05-23T04:47:14.396Z,3072.00
2019-05-23T04:48:14.425Z,3076.00
2019-05-23T04:49:14.466Z,3148.00
2019-05-23T04:50:14.504Z,3244.00
2019-05-23T04:51:14.545Z,3252.00
2019-05-23T04:52:14.595Z,3264.00
2019-05-23T04:53:14.644Z,3328.00
2019-05-23T04:54:14.682Z,3412.00
2019-05-23T04:55:14.703Z,3676.00
2019-05-23T04:56:14.743Z,3768.00
2019-05-23T04:57:14.782Z,3836.00
2019-05-23T04:58:14.838Z,3924.00
2019-05-23T04:59:14.862Z,3804.00
2019-05-23T05:00:14.929Z,3724.00
2019-05-23T05:01:14.940Z,3708.00
2019-05-23T05:02:25.656Z,3656.00
2019-05-23T05:03:17.889Z,3984.00
2019-05-23T05:04:15.057Z,4504.00
2019-05-23T05:05:15.099Z,4396.00
2019-05-23T05:06:15.137Z,4180.00
2019-05-23T05:07:15.182Z,4012.00
2019-05-23T05:08:15.285Z,3736.00
2019-05-23T05:09:15.258Z,3696.00
2019-05-23T05:10:15.293Z,3852.00
2019-05-23T05:11:15.382Z,4148.00
2019-05-23T05:12:15.387Z,4532.00
2019-05-23T05:13:15.420Z,4988.00
2019-05-23T05:14:15.455Z,5380.00
2019-05-23T05:15:15.492Z,5756.00
2019-05-23T05:16:15.529Z,5948.00
2019-05-23T05:17:15.569Z,6084.00
2019-05-23T05:18:15.627Z,5712.00
2019-05-23T05:19:15.660Z,5412.00
2019-05-23T05:20:15.691Z,4992.00
2019-05-23T05:21:15.735Z,4604.00
2019-05-23T05:22:15.770Z,4480.00
2019-05-23T05:23:15.807Z,4256.00
2019-05-23T05:24:15.849Z,4200.00
2019-05-23T05:25:16.049Z,4132.00
2019-05-23T05:26:15.927Z,4216.00
2019-05-23T05:27:15.968Z,4308.00
2019-05-23T05:28:16.008Z,4440.00
2019-05-23T05:29:16.049Z,4932.00
2019-05-23T05:30:16.092Z,5160.00
2019-05-23T05:31:16.144Z,5356.00
2019-05-23T05:32:16.178Z,5624.00
2019-05-23T05:33:16.211Z,6140.00
2019-05-23T05:34:16.249Z,6560.00
2019-05-23T05:35:16.291Z,6728.00
2019-05-23T05:36:16.327Z,6744.00
2019-05-23T05:37:16.370Z,6364.00
2019-05-23T05:38:16.407Z,6244.00
2019-05-23T05:39:16.451Z,6068.00
2019-05-23T05:40:16.491Z,6072.00
2019-05-23T05:41:16.527Z,6220.00
2019-05-23T05:42:16.584Z,6424.00
2019-05-23T05:43:16.610Z,6800.00
2019-05-23T05:44:16.654Z,6760.00
2019-05-23T05:45:16.693Z,6728.00
2019-05-23T05:46:16.732Z,6868.00
2019-05-23T05:47:16.773Z,7200.00
2019-05-23T05:48:16.823Z,7340.00
2019-05-23T05:49:16.856Z,7436.00
2019-05-23T05:50:16.900Z,7336.00
2019-05-23T05:51:16.932Z,7628.00
2019-05-23T05:52:16.972Z,7552.00
2019-05-23T05:53:17.017Z,7864.00
2019-05-23T05:54:17.052Z,8220.00
2019-05-23T05:55:17.093Z,8448.00
2019-05-23T05:56:17.384Z,8580.00
2019-05-23T05:57:17.176Z,8556.00
2019-05-23T05:58:17.238Z,9220.00
2019-05-23T05:59:17.261Z,9292.00
2019-05-23T06:00:17.298Z,9564.00
2019-05-23T06:01:32.743Z,9696.00
2019-05-23T06:02:17.376Z,10032.00
2019-05-23T06:03:17.433Z,10548.00
2019-05-23T06:04:17.458Z,11160.00
2019-05-23T06:05:17.513Z,11868.00
2019-05-23T06:06:17.539Z,12592.00
2019-05-23T06:07:17.579Z,13048.00
2019-05-23T06:08:17.656Z,13872.00
2019-05-23T06:09:17.662Z,14012.00
2019-05-23T06:10:17.711Z,14156.00
2019-05-23T06:11:17.749Z,14788.00
2019-05-23T06:12:17.789Z,14952.00
2019-05-23T06:13:17.827Z,14936.00
2019-05-23T06:14:17.867Z,15064.00
2019-05-23T06:15:17.909Z,14676.00
2019-05-23T06:16:17.975Z,14872.00
2019-05-23T06:17:17.993Z,15196.00
2019-05-23T06:18:18.032Z,14536.00
2019-05-23T06:19:18.084Z,13860.00
2019-05-23T06:20:18.132Z,13292.00
2019-05-23T06:21:18.160Z,12404.00
2019-05-23T06:22:18.202Z,12188.00
2019-05-23T06:23:18.277Z,12264.00
2019-05-23T06:24:18.282Z,12372.00
2019-05-23T06:25:18.391Z,12576.00
2019-05-23T06:26:18.392Z,12628.00
2019-05-23T06:27:18.522Z,13176.00
2019-05-23T06:28:18.458Z,13576.00
2019-05-23T06:29:18.646Z,13504.00
2019-05-23T06:30:18.533Z,13248.00
2019-05-23T06:31:18.574Z,13176.00
2019-05-23T06:32:18.614Z,13280.00
2019-05-23T06:33:23.093Z,13636.00
2019-05-23T06:34:18.698Z,13624.00
2019-05-23T06:35:18.749Z,13296.00
2019-05-23T06:36:18.781Z,12840.00
2019-05-23T06:37:18.826Z,12520.00
2019-05-23T06:38:18.867Z,11980.00
2019-05-23T06:39:18.909Z,11640.00
2019-05-23T06:40:19.028Z,11540.00
2019-05-23T06:41:19.065Z,11316.00
2019-05-23T06:42:19.034Z,10996.00
2019-05-23T06:43:19.083Z,10736.00
2019-05-23T06:44:19.161Z,10632.00
2019-05-23T06:45:19.201Z,10564.00
2019-05-23T06:46:19.214Z,10456.00
2019-05-23T06:47:19.247Z,10388.00
2019-05-23T06:48:19.286Z,10324.00
2019-05-23T06:49:19.329Z,10260.00
2019-05-23T06:50:19.393Z,10180.00
2019-05-23T06:51:19.418Z,10184.00
2019-05-23T06:52:19.454Z,10236.00
2019-05-23T06:53:19.493Z,10304.00
2019-05-23T06:54:19.547Z,10396.00
2019-05-23T06:55:19.585Z,10484.00
2019-05-23T06:56:19.622Z,10556.00
2019-05-23T06:57:19.664Z,10664.00
2019-05-23T06:58:20.065Z,10732.00
2019-05-23T06:59:19.747Z,10880.00
2019-05-23T07:00:19.794Z,10976.00
2019-05-23T07:01:19.832Z,10988.00
2019-05-23T07:02:19.872Z,10968.00
2019-05-23T07:03:19.915Z,11020.00
2019-05-23T07:04:19.957Z,11128.00
2019-05-23T07:05:20.010Z,11144.00
2019-05-23T07:06:20.040Z,11144.00
2019-05-23T07:07:20.086Z,11132.00
2019-05-23T07:08:20.134Z,11020.00
2019-05-23T07:09:20.243Z,10852.00
2019-05-23T07:10:20.209Z,10744.00
2019-05-23T07:11:20.250Z,10688.00
2019-05-23T07:12:20.294Z,10676.00
2019-05-23T07:13:20.338Z,10692.00
2019-05-23T07:14:20.377Z,10720.00
2019-05-23T07:15:20.421Z,10744.00
2019-05-23T07:16:20.460Z,10824.00
2019-05-23T07:17:20.505Z,10924.00
2019-05-23T07:18:20.549Z,10960.00
2019-05-23T07:19:20.600Z,10956.00
2019-05-23T07:20:20.657Z,10968.00
2019-05-23T07:21:20.724Z,10972.00
2019-05-23T07:22:20.721Z,11088.00
2019-05-23T07:23:20.763Z,11220.00
2019-05-23T07:24:20.799Z,11296.00
2019-05-23T07:25:20.841Z,11292.00
2019-05-23T07:26:20.885Z,11260.00
2019-05-23T07:27:20.928Z,11236.00
2019-05-23T07:28:20.969Z,11160.00
2019-05-23T07:29:21.018Z,11060.00
2019-05-23T07:30:21.060Z,10956.00
2019-05-23T07:31:21.105Z,10844.00
2019-05-23T07:32:21.147Z,10756.00
2019-05-23T07:33:21.186Z,10672.00
2019-05-23T07:34:21.228Z,10608.00
2019-05-23T07:35:21.279Z,10528.00
2019-05-23T07:36:21.311Z,10448.00
2019-05-23T07:37:21.368Z,10412.00
2019-05-23T07:38:21.406Z,10452.00
2019-05-23T07:39:21.442Z,10548.00
2019-05-23T07:40:21.480Z,10620.00
2019-05-23T07:41:21.523Z,10608.00
2019-05-23T07:42:21.568Z,10612.00
2019-05-23T07:43:21.608Z,10652.00
2019-05-23T07:44:21.669Z,10700.00
2019-05-23T07:45:21.693Z,10768.00
2019-05-23T07:46:21.736Z,10848.00
2019-05-23T07:47:21.779Z,10936.00
2019-05-23T07:48:21.832Z,11048.00
2019-05-23T07:49:21.879Z,11116.00
2019-05-23T07:50:21.909Z,11092.00
2019-05-23T07:51:21.949Z,11060.00
2019-05-23T07:52:21.998Z,11028.00
2019-05-23T07:53:22.069Z,10996.00
2019-05-23T07:54:22.085Z,10988.00
2019-05-23T07:55:22.125Z,10948.00
2019-05-23T07:56:22.188Z,10924.00
2019-05-23T07:57:22.208Z,10880.00
2019-05-23T07:58:22.260Z,10852.00
2019-05-23T07:59:22.298Z,10804.00
2019-05-23T08:00:22.341Z,10792.00
2019-05-23T08:01:22.380Z,10804.00
2019-05-23T08:02:25.491Z,10848.00
2019-05-23T08:03:22.467Z,10888.00
2019-05-23T08:04:22.932Z,10896.00
2019-05-23T08:05:22.661Z,10864.00
2019-05-23T08:06:22.598Z,10840.00
2019-05-23T08:07:22.642Z,10844.00
2019-05-23T08:08:22.697Z,10852.00
2019-05-23T08:09:22.727Z,10828.00
2019-05-23T08:10:33.258Z,10792.00
2019-05-23T08:11:22.817Z,10728.00
2019-05-23T08:12:22.994Z,10700.00
2019-05-23T08:13:22.903Z,10632.00
2019-05-23T08:14:22.948Z,10576.00
2019-05-23T08:15:22.990Z,10540.00
2019-05-23T08:16:23.031Z,10568.00
2019-05-23T08:17:23.084Z,10580.00
2019-05-23T08:18:23.128Z,10584.00
2019-05-23T08:19:23.160Z,10568.00
2019-05-23T08:20:23.220Z,10572.00
2019-05-23T08:21:23.252Z,10572.00
2019-05-23T08:22:23.292Z,10556.00
2019-05-23T08:23:23.341Z,10512.00
2019-05-23T08:24:23.384Z,10456.00
2019-05-23T08:25:23.423Z,10440.00
2019-05-23T08:26:23.471Z,10472.00
2019-05-23T08:27:23.512Z,10524.00
2019-05-23T08:28:23.560Z,10536.00
2019-05-23T08:29:26.627Z,10528.00
2019-05-23T08:30:23.644Z,10560.00
2019-05-23T08:31:23.703Z,10636.00
2019-05-23T08:32:23.732Z,10700.00
2019-05-23T08:33:23.783Z,10752.00
2019-05-23T08:34:39.932Z,10796.00
2019-05-23T08:35:23.863Z,10812.00
2019-05-23T08:36:23.918Z,10824.00
2019-05-23T08:37:23.964Z,10808.00
2019-05-23T08:38:23.995Z,10792.00
2019-05-23T08:39:24.047Z,10752.00
2019-05-23T08:40:24.086Z,10680.00
2019-05-23T08:41:24.134Z,10636.00
2019-05-23T08:42:24.173Z,10636.00
2019-05-23T08:43:24.219Z,10628.00
2019-05-23T08:44:24.277Z,10616.00
2019-05-23T08:45:24.360Z,10584.00
2019-05-23T08:46:24.354Z,10524.00
2019-05-23T08:47:24.395Z,10420.00
2019-05-23T08:48:24.451Z,10340.00
2019-05-23T08:49:24.483Z,10256.00
2019-05-23T08:50:24.531Z,10184.00
2019-05-23T08:51:24.575Z,10112.00
2019-05-23T08:52:24.618Z,10044.00
2019-05-23T08:53:24.663Z,9992.00
2019-05-23T08:54:24.706Z,9916.00
2019-05-23T08:55:24.752Z,9860.00
2019-05-23T08:56:24.795Z,9804.00
2019-05-23T08:57:24.842Z,9740.00
2019-05-23T08:58:24.886Z,9676.00
2019-05-23T08:59:24.942Z,9604.00
2019-05-23T09:00:24.978Z,9544.00
2019-05-23T09:01:25.022Z,9480.00
2019-05-23T09:02:25.149Z,9432.00
2019-05-23T09:03:25.115Z,9388.00
2019-05-23T09:04:25.162Z,9364.00
2019-05-23T09:05:25.208Z,9368.00
2019-05-23T09:06:25.252Z,9392.00
2019-05-23T09:07:25.290Z,9436.00
2019-05-23T09:08:25.334Z,9472.00
2019-05-23T09:09:29.784Z,9524.00
2019-05-23T09:10:25.426Z,9536.00
2019-05-23T09:11:25.481Z,9588.00
2019-05-23T09:12:25.526Z,9680.00
2019-05-23T09:13:25.558Z,9800.00
2019-05-23T09:14:25.605Z,9896.00
2019-05-23T09:15:25.652Z,9980.00
2019-05-23T09:16:25.704Z,10024.00
2019-05-23T09:17:25.747Z,10052.00
2019-05-23T09:18:25.784Z,10104.00
2019-05-23T09:19:25.840Z,10248.00
2019-05-23T09:20:25.875Z,10416.00
2019-05-23T09:21:25.921Z,10568.00
2019-05-23T09:22:25.970Z,10672.00
2019-05-23T09:23:26.065Z,10900.00
2019-05-23T09:24:26.057Z,11224.00
2019-05-23T09:25:26.109Z,11468.00
2019-05-23T09:26:26.149Z,11944.00
2019-05-23T09:27:26.193Z,12816.00
2019-05-23T09:28:26.252Z,13264.00
2019-05-23T09:29:26.288Z,13640.00
2019-05-23T09:30:26.333Z,14024.00
2019-05-23T09:31:26.383Z,14216.00
2019-05-23T09:32:26.421Z,14380.00
2019-05-23T09:33:26.470Z,14260.00
2019-05-23T09:34:26.514Z,13872.00
2019-05-23T09:35:26.560Z,13444.00
2019-05-23T09:36:26.606Z,13052.00
2019-05-23T09:37:26.654Z,13056.00
2019-05-23T09:38:26.699Z,13592.00
2019-05-23T09:39:26.742Z,13880.00
2019-05-23T09:40:26.789Z,13864.00
2019-05-23T09:41:26.846Z,13472.00
2019-05-23T09:42:26.881Z,12920.00
2019-05-23T09:43:26.927Z,12248.00
2019-05-23T09:44:26.973Z,11652.00
2019-05-23T09:45:27.018Z,11196.00
2019-05-23T09:46:27.065Z,11048.00
2019-05-23T09:47:27.115Z,11200.00
2019-05-23T09:48:27.397Z,11452.00
2019-05-23T09:49:27.208Z,12068.00
2019-05-23T09:50:27.251Z,12808.00
2019-05-23T09:51:27.302Z,13112.00
2019-05-23T09:52:27.342Z,12868.00
2019-05-23T09:53:27.390Z,12464.00
2019-05-23T09:54:27.444Z,11948.00
2019-05-23T09:55:27.483Z,11672.00
2019-05-23T09:56:27.528Z,11688.00
2019-05-23T09:57:27.582Z,11888.00
2019-05-23T09:58:27.622Z,12208.00
2019-05-23T09:59:27.674Z,12516.00
2019-05-23T10:00:27.724Z,12752.00
2019-05-23T10:01:27.772Z,12868.00
2019-05-23T10:02:27.810Z,12868.00
2019-05-23T10:03:27.859Z,12892.00
2019-05-23T10:04:27.915Z,13036.00
2019-05-23T10:05:42.196Z,13196.00
2019-05-23T10:06:28.004Z,13404.00
2019-05-23T10:07:28.043Z,13640.00
2019-05-23T10:08:28.090Z,14064.00
2019-05-23T10:09:28.133Z,14376.00
2019-05-23T10:10:28.182Z,14972.00
2019-05-23T10:11:28.229Z,15640.00
2019-05-23T10:12:28.276Z,16044.00
2019-05-23T10:13:38.721Z,16480.00
2019-05-23T10:14:28.379Z,16704.00
2019-05-23T10:15:28.424Z,16800.00
2019-05-23T10:16:28.465Z,16544.00
2019-05-23T10:17:28.514Z,16052.00
2019-05-23T10:18:28.557Z,15944.00
2019-05-23T10:19:28.610Z,15964.00
2019-05-23T10:20:28.649Z,16060.00
2019-05-23T10:21:28.705Z,16488.00
2019-05-23T10:22:28.746Z,17152.00
2019-05-23T10:23:28.801Z,17312.00
2019-05-23T10:24:28.841Z,17248.00
2019-05-23T10:25:28.886Z,16772.00
2019-05-23T10:26:28.937Z,16308.00
2019-05-23T10:27:29.014Z,15648.00
2019-05-23T10:28:29.027Z,14964.00
2019-05-23T10:29:29.085Z,14348.00
2019-05-23T10:30:29.122Z,14168.00
2019-05-23T10:31:29.172Z,13856.00
2019-05-23T10:32:29.216Z,13472.00
2019-05-23T10:33:29.260Z,13140.00
2019-05-23T10:34:29.308Z,12888.00
2019-05-23T10:35:29.361Z,12752.00
2019-05-23T10:36:29.416Z,12616.00
2019-05-23T10:37:29.460Z,12468.00
2019-05-23T10:38:29.729Z,12376.00
2019-05-23T10:39:29.547Z,12380.00
2019-05-23T10:40:29.594Z,12412.00
2019-05-23T10:41:29.636Z,12552.00
2019-05-23T10:42:29.688Z,12804.00
2019-05-23T10:43:29.737Z,13136.00
2019-05-23T10:44:29.787Z,13520.00
2019-05-23T10:45:29.824Z,13856.00
2019-05-23T10:46:29.874Z,13820.00
2019-05-23T10:47:29.918Z,13888.00
2019-05-23T10:48:29.967Z,13868.00
2019-05-23T10:49:30.012Z,13948.00
2019-05-23T10:50:43.556Z,14040.00
2019-05-23T10:51:30.107Z,13708.00
2019-05-23T10:52:30.159Z,13336.00
2019-05-23T10:53:30.201Z,13008.00
2019-05-23T10:54:30.248Z,12856.00
2019-05-23T10:55:30.295Z,12976.00
2019-05-23T10:56:30.337Z,13244.00
2019-05-23T10:57:30.401Z,13612.00
2019-05-23T10:58:30.442Z,14124.00
2019-05-23T10:59:30.483Z,14672.00
2019-05-23T11:00:30.537Z,15336.00
2019-05-23T11:01:30.575Z,15312.00
2019-05-23T11:02:30.621Z,14956.00
2019-05-23T11:03:30.672Z,14532.00
2019-05-23T11:04:30.728Z,14136.00
2019-05-23T11:05:30.763Z,13884.00
2019-05-23T11:06:30.849Z,13784.00
2019-05-23T11:07:30.855Z,13740.00
2019-05-23T11:08:30.906Z,13832.00
2019-05-23T11:09:37.969Z,13948.00
2019-05-23T11:10:31.100Z,14104.00
2019-05-23T11:11:31.058Z,14312.00
2019-05-23T11:12:31.116Z,13800.00
2019-05-23T11:13:31.144Z,13708.00
2019-05-23T11:14:31.189Z,13904.00
2019-05-23T11:15:31.248Z,14072.00
2019-05-23T11:16:31.285Z,14488.00
2019-05-23T11:17:31.328Z,14408.00
2019-05-23T11:18:31.377Z,13504.00
2019-05-23T11:19:31.427Z,12784.00
2019-05-23T11:20:31.476Z,12456.00
2019-05-23T11:21:31.519Z,12732.00
2019-05-23T11:22:31.566Z,13672.00
2019-05-23T11:23:31.643Z,14412.00
2019-05-23T11:24:31.680Z,15204.00
2019-05-23T11:25:31.807Z,15896.00
2019-05-23T11:26:31.753Z,16164.00
2019-05-23T11:27:31.810Z,15888.00
2019-05-23T11:28:31.850Z,15436.00
2019-05-23T11:29:31.895Z,14928.00
2019-05-23T11:30:31.947Z,15340.00
2019-05-23T11:31:31.991Z,15668.00
2019-05-23T11:32:32.098Z,15852.00
2019-05-23T11:33:32.094Z,16612.00
2019-05-23T11:34:32.135Z,17376.00
2019-05-23T11:35:32.182Z,17056.00
2019-05-23T11:36:35.994Z,16332.00
2019-05-23T11:37:32.279Z,15824.00
2019-05-23T11:38:32.330Z,15500.00
2019-05-23T11:39:32.372Z,15320.00
2019-05-23T11:40:33.774Z,14944.00
2019-05-23T11:41:32.477Z,14264.00
2019-05-23T11:42:32.516Z,13612.00
2019-05-23T11:43:32.570Z,13296.00
2019-05-23T11:44:32.614Z,13372.00
2019-05-23T11:45:32.657Z,13672.00
2019-05-23T11:46:32.707Z,14212.00
2019-05-23T11:47:32.767Z,14804.00
2019-05-23T11:48:32.799Z,15236.00
2019-05-23T11:49:32.851Z,15576.00
2019-05-23T11:50:32.955Z,15628.00
2019-05-23T11:51:32.944Z,15088.00
2019-05-23T11:52:32.996Z,14496.00
2019-05-23T11:53:33.040Z,14032.00
2019-05-23T11:54:33.090Z,13844.00
2019-05-23T11:55:33.158Z,13964.00
2019-05-23T11:56:33.194Z,14356.00
2019-05-23T11:57:37.271Z,14924.00
2019-05-23T11:58:33.309Z,15508.00
2019-05-23T11:59:33.357Z,16084.00
2019-05-23T12:00:33.390Z,16736.00
2019-05-23T12:01:33.422Z,17024.00
2019-05-23T12:02:33.482Z,17056.00
2019-05-23T12:03:33.525Z,16864.00
2019-05-23T12:04:33.572Z,16492.00
2019-05-23T12:05:33.640Z,16576.00
2019-05-23T12:06:33.678Z,16992.00
2019-05-23T12:07:33.711Z,16800.00
2019-05-23T12:08:33.759Z,15808.00
2019-05-23T12:09:33.816Z,15528.00
2019-05-23T12:10:33.862Z,15608.00
2019-05-23T12:11:38.226Z,15424.00
2019-05-23T12:12:33.962Z,15216.00
2019-05-23T12:13:33.999Z,15364.00